sensor_id;sensor_type;location;lat;lon;timestamp;pressure;altitude;pressure_sealevel;temperature;humidity
57248;BME280;55809;46.618;10.764;2023-03-31T00:00:53;92883.34;;;9.01;93.09
57248;BME280;55809;46.618;10.764;2023-03-31T00:03:30;92847.28;;;8.77;92.92
57248;BME280;55809;46.618;10.764;2023-03-31T00:06:00;92850.72;;;8.78;93.18
57248;BME280;55809;46.618;10.764;2023-03-31T00:08:30;92877.63;;;8.96;93.04
57248;BME280;55809;46.618;10.764;2023-03-31T00:11:03;92859.56;;;8.92;93.23
57248;BME280;55809;46.618;10.764;2023-03-31T00:13:32;92825.78;;;8.70;92.89
57248;BME280;55809;46.618;10.764;2023-03-31T00:16:10;92865.28;;;8.95;92.30
57248;BME280;55809;46.618;10.764;2023-03-31T00:18:38;92813.09;;;8.63;92.20
57248;BME280;55809;46.618;10.764;2023-03-31T00:21:14;92864.19;;;8.88;92.46
57248;BME280;55809;46.618;10.764;2023-03-31T00:23:52;92840.38;;;8.76;92.41
57248;BME280;55809;46.618;10.764;2023-03-31T00:26:19;92810.81;;;8.55;92.78
57248;BME280;55809;46.618;10.764;2023-03-31T00:28:49;92849.56;;;8.89;92.71
57248;BME280;55809;46.618;10.764;2023-03-31T00:31:19;92816.97;;;8.59;92.70
57248;BME280;55809;46.618;10.764;2023-03-31T00:33:49;92843.41;;;8.89;93.03
57248;BME280;55809;46.618;10.764;2023-03-31T00:36:17;92806.56;;;8.64;92.85
57248;BME280;55809;46.618;10.764;2023-03-31T00:38:54;92842.66;;;8.88;92.59
57248;BME280;55809;46.618;10.764;2023-03-31T00:41:26;92803.09;;;8.67;93.02
57248;BME280;55809;46.618;10.764;2023-03-31T00:44:10;92825.34;;;8.75;93.30
57248;BME280;55809;46.618;10.764;2023-03-31T00:47:00;92793.53;;;8.56;93.61
57248;BME280;55809;46.618;10.764;2023-03-31T00:49:32;92821.09;;;8.85;91.16
57248;BME280;55809;46.618;10.764;2023-03-31T00:52:12;92830.31;;;8.95;89.79
57248;BME280;55809;46.618;10.764;2023-03-31T00:54:46;92821.88;;;8.92;88.53
57248;BME280;55809;46.618;10.764;2023-03-31T00:57:16;92825.28;;;9.00;88.32
57248;BME280;55809;46.618;10.764;2023-03-31T00:59:49;92787.31;;;8.73;87.65
57248;BME280;55809;46.618;10.764;2023-03-31T01:02:21;92827.59;;;8.95;86.00
57248;BME280;55809;46.618;10.764;2023-03-31T01:04:53;92797.34;;;8.69;85.52
57248;BME280;55809;46.618;10.764;2023-03-31T01:07:26;92817.66;;;8.81;86.32
57248;BME280;55809;46.618;10.764;2023-03-31T01:09:57;92821.91;;;8.78;85.62
57248;BME280;55809;46.618;10.764;2023-03-31T01:12:26;92772.03;;;8.45;86.35
57248;BME280;55809;46.618;10.764;2023-03-31T01:14:55;92769.75;;;8.40;85.98
57248;BME280;55809;46.618;10.764;2023-03-31T01:17:26;92816.56;;;8.64;86.09
57248;BME280;55809;46.618;10.764;2023-03-31T01:20:02;92781.63;;;8.39;86.01
57248;BME280;55809;46.618;10.764;2023-03-31T01:23:15;92806.22;;;8.52;85.80
57248;BME280;55809;46.618;10.764;2023-03-31T01:29:03;92741.72;;;8.09;86.61
57248;BME280;55809;46.618;10.764;2023-03-31T01:38:51;92793.16;;;8.25;87.31
57248;BME280;55809;46.618;10.764;2023-03-31T01:42:04;92784.72;;;8.34;86.77
57248;BME280;55809;46.618;10.764;2023-03-31T01:44:41;92795.06;;;8.35;86.34
57248;BME280;55809;46.618;10.764;2023-03-31T01:47:15;92792.41;;;8.42;86.48
57248;BME280;55809;46.618;10.764;2023-03-31T01:50:03;92775.50;;;8.42;85.73
57248;BME280;55809;46.618;10.764;2023-03-31T01:52:36;92776.63;;;8.44;86.27
57248;BME280;55809;46.618;10.764;2023-03-31T01:55:12;92777.03;;;8.43;85.94
57248;BME280;55809;46.618;10.764;2023-03-31T01:57:53;92771.63;;;8.50;86.20
57248;BME280;55809;46.618;10.764;2023-03-31T02:00:51;92771.25;;;8.52;85.60
57248;BME280;55809;46.618;10.764;2023-03-31T02:03:55;92765.50;;;8.50;85.65
57248;BME280;55809;46.618;10.764;2023-03-31T02:06:32;92758.19;;;8.47;85.95
57248;BME280;55809;46.618;10.764;2023-03-31T02:09:33;92743.97;;;8.35;86.95
57248;BME280;55809;46.618;10.764;2023-03-31T02:12:08;92741.28;;;8.32;86.70
57248;BME280;55809;46.618;10.764;2023-03-31T02:14:44;92744.75;;;8.29;87.22
57248;BME280;55809;46.618;10.764;2023-03-31T02:17:20;92748.63;;;8.20;88.27
57248;BME280;55809;46.618;10.764;2023-03-31T02:20:04;92739.78;;;8.27;87.69
57248;BME280;55809;46.618;10.764;2023-03-31T02:22:40;92742.50;;;8.20;88.38
57248;BME280;55809;46.618;10.764;2023-03-31T02:25:14;92749.00;;;8.22;88.47
57248;BME280;55809;46.618;10.764;2023-03-31T02:27:55;92749.75;;;8.30;87.45
57248;BME280;55809;46.618;10.764;2023-03-31T02:30:40;92736.69;;;8.32;87.80
57248;BME280;55809;46.618;10.764;2023-03-31T02:33:18;92731.31;;;8.36;87.18
57248;BME280;55809;46.618;10.764;2023-03-31T02:35:48;92732.84;;;8.44;89.90
57248;BME280;55809;46.618;10.764;2023-03-31T02:38:17;92735.94;;;8.42;89.82
57248;BME280;55809;46.618;10.764;2023-03-31T02:40:46;92730.91;;;8.44;89.98
57248;BME280;55809;46.618;10.764;2023-03-31T02:43:55;92710.94;;;8.45;91.29
57248;BME280;55809;46.618;10.764;2023-03-31T02:46:35;92689.44;;;8.35;91.19
57248;BME280;55809;46.618;10.764;2023-03-31T02:49:07;92714.38;;;8.53;91.72
57248;BME280;55809;46.618;10.764;2023-03-31T02:55:25;92690.59;;;8.41;93.59
57248;BME280;55809;46.618;10.764;2023-03-31T02:58:40;92713.19;;;8.58;92.27
57248;BME280;55809;46.618;10.764;2023-03-31T03:04:22;92713.53;;;8.71;90.75
57248;BME280;55809;46.618;10.764;2023-03-31T03:07:04;92715.84;;;8.72;90.48
57248;BME280;55809;46.618;10.764;2023-03-31T03:09:47;92722.00;;;8.69;89.22
57248;BME280;55809;46.618;10.764;2023-03-31T03:12:26;92708.16;;;8.67;88.85
57248;BME280;55809;46.618;10.764;2023-03-31T03:15:00;92695.47;;;8.67;88.88
57248;BME280;55809;46.618;10.764;2023-03-31T03:17:35;92696.69;;;8.59;89.55
57248;BME280;55809;46.618;10.764;2023-03-31T03:20:10;92693.22;;;8.59;89.33
57248;BME280;55809;46.618;10.764;2023-03-31T03:22:39;92689.75;;;8.55;89.18
57248;BME280;55809;46.618;10.764;2023-03-31T03:25:09;92693.56;;;8.64;90.05
57248;BME280;55809;46.618;10.764;2023-03-31T03:27:38;92683.22;;;8.63;90.33
57248;BME280;55809;46.618;10.764;2023-03-31T03:30:08;92690.13;;;8.64;90.55
57248;BME280;55809;46.618;10.764;2023-03-31T03:32:36;92685.13;;;8.62;89.77
57248;BME280;55809;46.618;10.764;2023-03-31T03:35:05;92684.72;;;8.67;88.34
57248;BME280;55809;46.618;10.764;2023-03-31T03:37:39;92685.09;;;8.69;86.72
57248;BME280;55809;46.618;10.764;2023-03-31T03:40:08;92678.19;;;8.72;84.34
57248;BME280;55809;46.618;10.764;2023-03-31T03:42:38;92667.03;;;8.66;84.60
57248;BME280;55809;46.618;10.764;2023-03-31T03:45:08;92655.13;;;8.64;85.21
57248;BME280;55809;46.618;10.764;2023-03-31T03:47:37;92650.53;;;8.61;85.10
57248;BME280;55809;46.618;10.764;2023-03-31T03:50:06;92649.38;;;8.62;85.11
57248;BME280;55809;46.618;10.764;2023-03-31T03:52:36;92644.81;;;8.59;85.29
57248;BME280;55809;46.618;10.764;2023-03-31T03:55:06;92651.31;;;8.61;85.81
57248;BME280;55809;46.618;10.764;2023-03-31T03:57:34;92655.56;;;8.59;86.55
57248;BME280;55809;46.618;10.764;2023-03-31T04:00:06;92656.69;;;8.61;86.55
57248;BME280;55809;46.618;10.764;2023-03-31T04:02:38;92639.13;;;8.42;86.70
57248;BME280;55809;46.618;10.764;2023-03-31T04:05:06;92675.50;;;8.61;86.52
57248;BME280;55809;46.618;10.764;2023-03-31T04:07:37;92655.56;;;8.59;86.48
57248;BME280;55809;46.618;10.764;2023-03-31T04:10:06;92609.56;;;8.25;86.37
57248;BME280;55809;46.618;10.764;2023-03-31T04:12:35;92649.06;;;8.45;86.91
57248;BME280;55809;46.618;10.764;2023-03-31T04:15:03;92655.22;;;8.50;86.87
57248;BME280;55809;46.618;10.764;2023-03-31T04:17:33;92662.88;;;8.51;86.48
57248;BME280;55809;46.618;10.764;2023-03-31T04:20:06;92664.06;;;8.50;86.46
57248;BME280;55809;46.618;10.764;2023-03-31T04:22:37;92664.78;;;8.54;85.72
57248;BME280;55809;46.618;10.764;2023-03-31T04:25:13;92665.19;;;8.53;85.50
57248;BME280;55809;46.618;10.764;2023-03-31T04:27:42;92661.38;;;8.47;85.98
57248;BME280;55809;46.618;10.764;2023-03-31T04:30:13;92645.63;;;8.41;86.04
57248;BME280;55809;46.618;10.764;2023-03-31T04:32:50;92646.41;;;8.38;86.16
57248;BME280;55809;46.618;10.764;2023-03-31T04:35:19;92580.44;;;8.09;85.69
57248;BME280;55809;46.618;10.764;2023-03-31T04:37:48;92601.13;;;8.30;85.35
57248;BME280;55809;46.618;10.764;2023-03-31T04:40:17;92634.84;;;8.45;84.85
57248;BME280;55809;46.618;10.764;2023-03-31T04:42:46;92637.16;;;8.50;83.94
57248;BME280;55809;46.618;10.764;2023-03-31T04:45:14;92647.09;;;8.57;83.47
57248;BME280;55809;46.618;10.764;2023-03-31T04:47:42;92624.56;;;8.29;82.72
57248;BME280;55809;46.618;10.764;2023-03-31T04:50:10;92665.53;;;8.58;82.83
57248;BME280;55809;46.618;10.764;2023-03-31T04:52:38;92616.09;;;8.31;82.70
57248;BME280;55809;46.618;10.764;2023-03-31T04:55:10;92627.59;;;8.35;83.67
57248;BME280;55809;46.618;10.764;2023-03-31T04:57:38;92600.84;;;8.06;84.10
57248;BME280;55809;46.618;10.764;2023-03-31T05:00:09;92597.38;;;7.98;83.84
57248;BME280;55809;46.618;10.764;2023-03-31T05:02:40;92634.97;;;8.16;84.17
57248;BME280;55809;46.618;10.764;2023-03-31T05:05:08;92571.31;;;7.88;84.12
57248;BME280;55809;46.618;10.764;2023-03-31T05:07:43;92606.13;;;8.24;82.59
57248;BME280;55809;46.618;10.764;2023-03-31T05:10:12;92604.19;;;8.25;82.82
57248;BME280;55809;46.618;10.764;2023-03-31T05:12:39;92601.13;;;8.26;82.84
57248;BME280;55809;46.618;10.764;2023-03-31T05:15:07;92585.00;;;8.22;82.79
57248;BME280;55809;46.618;10.764;2023-03-31T05:17:34;92542.53;;;7.85;83.15
57248;BME280;55809;46.618;10.764;2023-03-31T05:20:03;92535.69;;;7.77;82.96
57248;BME280;55809;46.618;10.764;2023-03-31T05:22:34;92587.72;;;8.12;83.10
57248;BME280;55809;46.618;10.764;2023-03-31T05:25:01;92563.97;;;8.03;82.58
57248;BME280;55809;46.618;10.764;2023-03-31T05:27:31;92527.59;;;7.84;82.33
57248;BME280;55809;46.618;10.764;2023-03-31T05:29:58;92588.03;;;8.28;81.59
57248;BME280;55809;46.618;10.764;2023-03-31T05:32:27;92593.03;;;8.33;80.87
57248;BME280;55809;46.618;10.764;2023-03-31T05:34:55;92573.88;;;8.20;81.16
57248;BME280;55809;46.618;10.764;2023-03-31T05:37:24;92542.84;;;8.05;81.62
57248;BME280;55809;46.618;10.764;2023-03-31T05:39:55;92538.28;;;7.95;82.40
57248;BME280;55809;46.618;10.764;2023-03-31T05:42:23;92559.66;;;8.23;81.64
57248;BME280;55809;46.618;10.764;2023-03-31T05:44:55;92572.69;;;8.29;82.01
57248;BME280;55809;46.618;10.764;2023-03-31T05:47:24;92568.13;;;8.15;82.43
57248;BME280;55809;46.618;10.764;2023-03-31T05:49:53;92565.06;;;8.20;82.19
57248;BME280;55809;46.618;10.764;2023-03-31T05:52:21;92553.56;;;8.09;83.09
57248;BME280;55809;46.618;10.764;2023-03-31T05:54:49;92547.44;;;8.05;83.47
57248;BME280;55809;46.618;10.764;2023-03-31T05:57:17;92562.75;;;8.15;83.62
57248;BME280;55809;46.618;10.764;2023-03-31T05:59:46;92567.41;;;8.11;83.64
57248;BME280;55809;46.618;10.764;2023-03-31T06:02:16;92518.00;;;7.87;83.69
57248;BME280;55809;46.618;10.764;2023-03-31T06:04:44;92555.81;;;8.21;83.24
57248;BME280;55809;46.618;10.764;2023-03-31T06:07:12;92513.69;;;8.00;83.27
57248;BME280;55809;46.618;10.764;2023-03-31T06:09:43;92554.25;;;8.31;83.23
57248;BME280;55809;46.618;10.764;2023-03-31T06:12:11;92505.16;;;8.16;82.63
57248;BME280;55809;46.618;10.764;2023-03-31T06:14:41;92533.41;;;8.45;82.07
57248;BME280;55809;46.618;10.764;2023-03-31T06:17:10;92477.50;;;8.15;82.84
57248;BME280;55809;46.618;10.764;2023-03-31T06:19:40;92524.91;;;8.54;87.05
57248;BME280;55809;46.618;10.764;2023-03-31T06:22:08;92531.81;;;8.59;86.99
57248;BME280;55809;46.618;10.764;2023-03-31T06:24:36;92529.53;;;8.54;87.46
57248;BME280;55809;46.618;10.764;2023-03-31T06:27:05;92507.34;;;8.35;86.75
57248;BME280;55809;46.618;10.764;2023-03-31T06:29:33;92534.13;;;8.57;86.72
57248;BME280;55809;46.618;10.764;2023-03-31T06:32:01;92497.38;;;8.39;86.89
57248;BME280;55809;46.618;10.764;2023-03-31T06:34:31;92531.75;;;8.69;85.52
57248;BME280;55809;46.618;10.764;2023-03-31T06:37:13;92530.91;;;8.76;85.47
57248;BME280;55809;46.618;10.764;2023-03-31T06:39:41;92533.56;;;8.83;84.54
57248;BME280;55809;46.618;10.764;2023-03-31T06:42:10;92474.91;;;8.64;83.47
57248;BME280;55809;46.618;10.764;2023-03-31T06:44:39;92474.81;;;8.71;82.72
57248;BME280;55809;46.618;10.764;2023-03-31T06:47:07;92522.66;;;8.98;83.05
57248;BME280;55809;46.618;10.764;2023-03-31T06:49:37;92475.97;;;8.74;83.85
57248;BME280;55809;46.618;10.764;2023-03-31T06:52:07;92480.16;;;8.82;84.59
57248;BME280;55809;46.618;10.764;2023-03-31T06:54:35;92468.63;;;8.78;84.25
57248;BME280;55809;46.618;10.764;2023-03-31T06:57:03;92463.66;;;8.76;82.73
57248;BME280;55809;46.618;10.764;2023-03-31T06:59:31;92510.22;;;9.11;82.11
57248;BME280;55809;46.618;10.764;2023-03-31T07:02:00;92482.38;;;8.87;82.38
57248;BME280;55809;46.618;10.764;2023-03-31T07:04:30;92517.50;;;9.14;82.54
57248;BME280;55809;46.618;10.764;2023-03-31T07:06:59;92481.63;;;8.86;82.94
57248;BME280;55809;46.618;10.764;2023-03-31T07:09:29;92465.47;;;8.86;83.51
57248;BME280;55809;46.618;10.764;2023-03-31T07:11:57;92470.41;;;8.95;84.18
57248;BME280;55809;46.618;10.764;2023-03-31T07:14:25;92510.47;;;9.27;84.00
57248;BME280;55809;46.618;10.764;2023-03-31T07:16:54;92463.44;;;8.98;84.28
57248;BME280;55809;46.618;10.764;2023-03-31T07:19:22;92476.06;;;9.04;83.18
57248;BME280;55809;46.618;10.764;2023-03-31T07:21:51;92492.91;;;9.15;82.68
57248;BME280;55809;46.618;10.764;2023-03-31T07:24:19;92461.38;;;9.12;81.51
57248;BME280;55809;46.618;10.764;2023-03-31T07:26:50;92492.25;;;9.42;81.39
57248;BME280;55809;46.618;10.764;2023-03-31T07:29:18;92449.81;;;9.15;82.08
57248;BME280;55809;46.618;10.764;2023-03-31T07:31:47;92492.59;;;9.48;82.42
57248;BME280;55809;46.618;10.764;2023-03-31T07:34:14;92451.63;;;9.26;81.85
57248;BME280;55809;46.618;10.764;2023-03-31T07:36:43;92477.56;;;9.47;81.63
57248;BME280;55809;46.618;10.764;2023-03-31T07:39:11;92488.91;;;9.65;81.18
57248;BME280;55809;46.618;10.764;2023-03-31T07:41:40;92453.19;;;9.57;80.82
57248;BME280;55809;46.618;10.764;2023-03-31T07:44:12;92458.06;;;9.70;80.57
57248;BME280;55809;46.618;10.764;2023-03-31T07:46:41;92491.28;;;9.94;80.18
57248;BME280;55809;46.618;10.764;2023-03-31T07:49:12;92438.25;;;9.83;80.00
57248;BME280;55809;46.618;10.764;2023-03-31T07:51:42;92426.56;;;9.94;79.55
57248;BME280;55809;46.618;10.764;2023-03-31T07:54:10;92436.19;;;10.22;78.44
57248;BME280;55809;46.618;10.764;2023-03-31T07:56:38;92476.28;;;10.74;78.16
57248;BME280;55809;46.618;10.764;2023-03-31T07:59:06;92434.56;;;10.78;78.46
57248;BME280;55809;46.618;10.764;2023-03-31T08:01:39;92433.03;;;10.77;77.06
57248;BME280;55809;46.618;10.764;2023-03-31T08:04:08;92420.59;;;10.84;76.93
57248;BME280;55809;46.618;10.764;2023-03-31T08:06:36;92417.06;;;11.30;74.45
57248;BME280;55809;46.618;10.764;2023-03-31T08:09:05;92450.69;;;11.49;74.52
57248;BME280;55809;46.618;10.764;2023-03-31T08:11:34;92407.56;;;11.62;73.77
57248;BME280;55809;46.618;10.764;2023-03-31T08:14:02;92411.72;;;11.46;73.58
57248;BME280;55809;46.618;10.764;2023-03-31T08:16:31;92437.84;;;11.93;73.17
57248;BME280;55809;46.618;10.764;2023-03-31T08:19:04;92397.28;;;11.93;72.22
57248;BME280;55809;46.618;10.764;2023-03-31T08:21:33;92405.19;;;12.36;71.13
57248;BME280;55809;46.618;10.764;2023-03-31T08:24:03;92427.28;;;13.00;68.65
57248;BME280;55809;46.618;10.764;2023-03-31T08:26:32;92387.13;;;13.11;68.52
57248;BME280;55809;46.618;10.764;2023-03-31T08:29:01;92421.28;;;13.22;69.26
57248;BME280;55809;46.618;10.764;2023-03-31T08:31:30;92394.72;;;13.17;67.64
57248;BME280;55809;46.618;10.764;2023-03-31T08:33:58;92388.47;;;13.20;68.39
57248;BME280;55809;46.618;10.764;2023-03-31T08:36:30;92378.69;;;13.22;66.91
57248;BME280;55809;46.618;10.764;2023-03-31T08:38:58;92375.56;;;13.24;66.76
57248;BME280;55809;46.618;10.764;2023-03-31T08:41:39;92353.53;;;12.93;68.31
57248;BME280;55809;46.618;10.764;2023-03-31T08:44:10;92391.84;;;13.53;67.86
57248;BME280;55809;46.618;10.764;2023-03-31T08:46:41;92362.50;;;13.35;67.07
57248;BME280;55809;46.618;10.764;2023-03-31T08:49:14;92349.91;;;12.83;67.43
57248;BME280;55809;46.618;10.764;2023-03-31T08:51:48;92346.91;;;12.81;69.19
57248;BME280;55809;46.618;10.764;2023-03-31T08:54:27;92388.78;;;13.51;67.13
57248;BME280;55809;46.618;10.764;2023-03-31T08:57:00;92374.09;;;13.77;64.90
57248;BME280;55809;46.618;10.764;2023-03-31T08:59:30;92346.31;;;13.60;67.13
57248;BME280;55809;46.618;10.764;2023-03-31T09:02:08;92330.97;;;12.83;67.38
57248;BME280;55809;46.618;10.764;2023-03-31T09:05:15;92345.81;;;12.62;69.94
57248;BME280;55809;46.618;10.764;2023-03-31T09:07:56;92360.38;;;12.52;69.67
57248;BME280;55809;46.618;10.764;2023-03-31T09:10:35;92350.97;;;12.24;71.65
57248;BME280;55809;46.618;10.764;2023-03-31T09:13:16;92307.50;;;11.82;72.08
57248;BME280;55809;46.618;10.764;2023-03-31T09:15:52;92317.28;;;11.39;72.01
57248;BME280;55809;46.618;10.764;2023-03-31T09:18:29;92329.72;;;11.17;72.14
57248;BME280;55809;46.618;10.764;2023-03-31T09:21:05;92330.69;;;10.87;73.60
57248;BME280;55809;46.618;10.764;2023-03-31T09:23:46;92312.91;;;10.66;74.54
57248;BME280;55809;46.618;10.764;2023-03-31T09:26:23;92327.41;;;10.75;75.38
57248;BME280;55809;46.618;10.764;2023-03-31T09:28:55;92351.91;;;10.85;75.25
57248;BME280;55809;46.618;10.764;2023-03-31T09:31:27;92305.19;;;10.68;75.65
57248;BME280;55809;46.618;10.764;2023-03-31T09:34:00;92294.81;;;10.43;76.32
57248;BME280;55809;46.618;10.764;2023-03-31T09:36:30;92284.84;;;10.16;77.02
57248;BME280;55809;46.618;10.764;2023-03-31T09:39:17;92245.78;;;10.04;77.14
57248;BME280;55809;46.618;10.764;2023-03-31T09:41:48;92277.19;;;10.38;76.85
57248;BME280;55809;46.618;10.764;2023-03-31T09:44:24;92300.22;;;10.66;76.92
57248;BME280;55809;46.618;10.764;2023-03-31T09:46:54;92261.09;;;10.54;75.09
57248;BME280;55809;46.618;10.764;2023-03-31T09:49:26;92305.31;;;10.61;75.42
57248;BME280;55809;46.618;10.764;2023-03-31T09:52:04;92267.22;;;10.12;76.01
57248;BME280;55809;46.618;10.764;2023-03-31T09:54:40;92265.22;;;10.16;76.77
57248;BME280;55809;46.618;10.764;2023-03-31T09:57:22;92262.59;;;10.36;76.64
57248;BME280;55809;46.618;10.764;2023-03-31T09:59:52;92254.44;;;10.39;76.36
57248;BME280;55809;46.618;10.764;2023-03-31T10:02:32;92249.31;;;10.45;76.33
57248;BME280;55809;46.618;10.764;2023-03-31T10:05:03;92278.25;;;10.64;76.26
57248;BME280;55809;46.618;10.764;2023-03-31T10:07:33;92235.28;;;10.33;76.98
57248;BME280;55809;46.618;10.764;2023-03-31T10:10:09;92230.66;;;10.54;76.14
57248;BME280;55809;46.618;10.764;2023-03-31T10:12:38;92222.34;;;10.85;74.57
57248;BME280;55809;46.618;10.764;2023-03-31T10:15:17;92237.81;;;11.20;71.38
57248;BME280;55809;46.618;10.764;2023-03-31T10:17:46;92233.59;;;11.19;71.87
57248;BME280;55809;46.618;10.764;2023-03-31T10:20:25;92262.78;;;11.24;72.11
57248;BME280;55809;46.618;10.764;2023-03-31T10:22:55;92254.34;;;11.22;71.54
57248;BME280;55809;46.618;10.764;2023-03-31T10:25:26;92247.22;;;11.48;71.08
57248;BME280;55809;46.618;10.764;2023-03-31T10:27:56;92194.88;;;11.42;69.36
57248;BME280;55809;46.618;10.764;2023-03-31T10:30:27;92181.34;;;11.42;69.98
57248;BME280;55809;46.618;10.764;2023-03-31T10:33:00;92175.88;;;11.62;69.58
57248;BME280;55809;46.618;10.764;2023-03-31T10:35:31;92169.00;;;11.41;69.17
57248;BME280;55809;46.618;10.764;2023-03-31T10:38:06;92172.16;;;11.56;68.67
57248;BME280;55809;46.618;10.764;2023-03-31T10:40:50;92219.47;;;11.97;67.89
57248;BME280;55809;46.618;10.764;2023-03-31T10:43:24;92221.47;;;12.26;68.02
57248;BME280;55809;46.618;10.764;2023-03-31T10:45:56;92170.88;;;11.77;68.06
57248;BME280;55809;46.618;10.764;2023-03-31T10:48:28;92168.41;;;11.83;68.37
57248;BME280;55809;46.618;10.764;2023-03-31T10:50:59;92205.84;;;12.01;67.40
57248;BME280;55809;46.618;10.764;2023-03-31T10:53:27;92169.84;;;11.55;67.80
57248;BME280;55809;46.618;10.764;2023-03-31T10:56:24;92210.66;;;11.44;67.69
57248;BME280;55809;46.618;10.764;2023-03-31T11:01:53;92188.41;;;11.20;70.87
57248;BME280;55809;46.618;10.764;2023-03-31T11:04:40;92139.31;;;10.89;70.58
57248;BME280;55809;46.618;10.764;2023-03-31T11:07:13;92129.44;;;10.82;69.69
57248;BME280;55809;46.618;10.764;2023-03-31T11:09:57;92150.50;;;11.07;69.87
57248;BME280;55809;46.618;10.764;2023-03-31T11:12:33;92099.06;;;10.78;70.37
57248;BME280;55809;46.618;10.764;2023-03-31T11:15:11;92092.91;;;10.77;70.36
57248;BME280;55809;46.618;10.764;2023-03-31T11:18:00;92093.69;;;10.78;71.55
57248;BME280;55809;46.618;10.764;2023-03-31T11:20:34;92114.91;;;10.96;70.54
57248;BME280;55809;46.618;10.764;2023-03-31T11:23:12;92059.78;;;10.77;70.57
57248;BME280;55809;46.618;10.764;2023-03-31T11:25:46;92106.09;;;11.08;70.79
57248;BME280;55809;46.618;10.764;2023-03-31T11:28:32;92093.13;;;11.03;70.96
57248;BME280;55809;46.618;10.764;2023-03-31T11:31:14;92086.03;;;10.93;70.61
57248;BME280;55809;46.618;10.764;2023-03-31T11:33:55;92084.59;;;11.04;70.06
57248;BME280;55809;46.618;10.764;2023-03-31T11:36:37;92086.34;;;10.95;69.46
57248;BME280;55809;46.618;10.764;2023-03-31T11:39:25;92040.63;;;10.71;69.58
57248;BME280;55809;46.618;10.764;2023-03-31T11:41:57;92034.19;;;10.65;70.47
57248;BME280;55809;46.618;10.764;2023-03-31T11:44:33;92059.44;;;10.91;70.02
57248;BME280;55809;46.618;10.764;2023-03-31T11:47:07;92036.50;;;10.67;69.22
57248;BME280;55809;46.618;10.764;2023-03-31T11:49:37;92068.13;;;10.99;70.16
57248;BME280;55809;46.618;10.764;2023-03-31T11:52:08;92018.09;;;10.78;70.03
57248;BME280;55809;46.618;10.764;2023-03-31T11:54:42;92021.72;;;10.71;70.16
57248;BME280;55809;46.618;10.764;2023-03-31T11:57:15;92015.56;;;10.54;70.80
57248;BME280;55809;46.618;10.764;2023-03-31T11:59:49;92046.00;;;10.71;70.79
57248;BME280;55809;46.618;10.764;2023-03-31T12:02:22;92011.72;;;10.36;70.45
57248;BME280;55809;46.618;10.764;2023-03-31T12:04:56;92004.59;;;10.25;71.34
57248;BME280;55809;46.618;10.764;2023-03-31T12:07:28;92034.69;;;10.44;71.50
57248;BME280;55809;46.618;10.764;2023-03-31T12:09:59;92046.25;;;10.24;72.71
57248;BME280;55809;46.618;10.764;2023-03-31T12:12:32;92005.50;;;9.82;73.05
57248;BME280;55809;46.618;10.764;2023-03-31T12:15:10;91991.13;;;9.69;72.56
57248;BME280;55809;46.618;10.764;2023-03-31T12:17:42;92019.63;;;10.06;73.05
57248;BME280;55809;46.618;10.764;2023-03-31T12:20:16;92028.06;;;10.08;73.07
57248;BME280;55809;46.618;10.764;2023-03-31T12:22:47;91995.81;;;9.85;72.96
57248;BME280;55809;46.618;10.764;2023-03-31T12:25:18;91998.53;;;9.85;72.23
57248;BME280;55809;46.618;10.764;2023-03-31T12:27:47;91992.03;;;9.82;71.85
57248;BME280;55809;46.618;10.764;2023-03-31T12:30:23;91982.16;;;9.76;72.04
57248;BME280;55809;46.618;10.764;2023-03-31T12:32:56;91959.56;;;9.70;71.08
57248;BME280;55809;46.618;10.764;2023-03-31T12:35:27;91944.94;;;9.87;72.82
57248;BME280;55809;46.618;10.764;2023-03-31T12:38:33;91914.78;;;9.76;71.19
57248;BME280;55809;46.618;10.764;2023-03-31T12:41:09;91972.38;;;10.38;70.70
57248;BME280;55809;46.618;10.764;2023-03-31T12:44:02;91974.81;;;10.49;70.20
57248;BME280;55809;46.618;10.764;2023-03-31T12:50:11;91921.66;;;10.13;72.13
57248;BME280;55809;46.618;10.764;2023-03-31T12:52:48;91934.91;;;10.07;73.24
57248;BME280;55809;46.618;10.764;2023-03-31T12:55:32;91947.69;;;10.20;74.98
57248;BME280;55809;46.618;10.764;2023-03-31T13:01:15;91896.41;;;10.07;73.50
57248;BME280;55809;46.618;10.764;2023-03-31T13:04:07;91892.19;;;10.22;74.12
57248;BME280;55809;46.618;10.764;2023-03-31T13:06:54;91879.16;;;10.37;74.20
57248;BME280;55809;46.618;10.764;2023-03-31T13:09:42;91872.91;;;10.40;72.89
57248;BME280;55809;46.618;10.764;2023-03-31T13:12:16;91863.72;;;10.54;72.75
57248;BME280;55809;46.618;10.764;2023-03-31T13:14:47;91863.97;;;10.60;73.21
57248;BME280;55809;46.618;10.764;2023-03-31T13:17:27;91850.69;;;10.65;72.41
57248;BME280;55809;46.618;10.764;2023-03-31T13:20:15;91877.50;;;10.72;71.24
57248;BME280;55809;46.618;10.764;2023-03-31T13:22:45;91865.59;;;10.41;71.21
57248;BME280;55809;46.618;10.764;2023-03-31T13:25:37;91909.50;;;10.41;72.16
57248;BME280;55809;46.618;10.764;2023-03-31T13:28:12;91856.69;;;9.91;73.21
57248;BME280;55809;46.618;10.764;2023-03-31T13:30:50;91844.91;;;9.85;73.45
57248;BME280;55809;46.618;10.764;2023-03-31T13:33:33;91855.13;;;9.94;73.41
57248;BME280;55809;46.618;10.764;2023-03-31T13:36:34;91863.69;;;9.89;73.53
57248;BME280;55809;46.618;10.764;2023-03-31T13:45:46;91853.09;;;9.45;75.66
57248;BME280;55809;46.618;10.764;2023-03-31T13:48:36;91896.44;;;9.71;76.41
57248;BME280;55809;46.618;10.764;2023-03-31T14:00:27;91829.41;;;9.36;76.92
57248;BME280;55809;46.618;10.764;2023-03-31T14:05:54;91840.69;;;9.31;78.54
57248;BME280;55809;46.618;10.764;2023-03-31T14:08:39;91878.28;;;9.55;80.68
57248;BME280;55809;46.618;10.764;2023-03-31T14:11:33;91870.06;;;9.42;79.75
57248;BME280;55809;46.618;10.764;2023-03-31T14:14:03;91880.78;;;9.46;81.45
57248;BME280;55809;46.618;10.764;2023-03-31T14:16:50;91860.44;;;9.25;81.38
57248;BME280;55809;46.618;10.764;2023-03-31T14:22:24;91870.56;;;9.37;83.37